Airfield :
LOGIN :

Register | Disclaimer

   EN    FR    IT 

 










Legend :    VFR   Marginal VFR   IFR   Intensive IFR   Very Intensive IFR
Visi :
Ceiling :
>= 8 km
>= 3000ft
5 to 8 km
1000 to 3000 ft
1500m to 5 km
500 to 1000 ft
800 to 1500m
200 to 500 ft
< 800m
< 200 ft
Symbols :   Thunderstorms  Fog  Heavy snow  Heavy precipitations  Wind > 20 kt
SIGMETs :     Misc.  Thunderstorms  Icing  Turbulence  Mountain Waves  Volcanic Ashes






- Airport Elevation : 38 ft
- IATA code : ADX


EGQL - RAF Leuchars

CURRENT METAR :
  • 202350Z 24006KT 9999 7000S VCFG FEW001 SCT018 09/09 Q1018 WHT

EXPIRED METARs :
  • 202250Z 27006KT 0400 FG FEW001 09/09 Q1019 RED
  • 202150Z 24003KT 9999 MIFG SKC 08/08 Q1019 BLU
  • 202050Z 28001KT 9999 PRFG SCT020 09/09 Q1020 WHT

TAF TAF EGQL
Valid from the 21 at 00:00 until the 21 at 09:00 UTC


202232Z 2100/2109 23003KT 9999 FEW014
PROB40
TEMPO 2100/2109 SCT014
PROB30
TEMPO 2100/2103 0500 FG VV///



MET'MAP, your aeronautical weather chart ! - Copyright ORBIFLY December 2007 - Disclaimer

ORBIFLY MET'MAP TEAM :

Programming & Development : Alexandra Zaïnal
Concept & original design : Baudouin d'Aumeries
Assistance for programming : Marc-Olivier Méhu
Technical & hardware support : Manuel Goepfert

Contact : metmap@orbifly.com




SOURCES & CREDITS :

   NOAA